Time;durP1;ratioP1;P1;durP2;ratioP2;P2;SDS_P1;SDS_P2;PMS_P1;PMS_P2;Temp;Humidity;BMP_temperature;BMP_pressure;BME280_temperature;BME280_humidity;BME280_pressure;Samples;Min_cycle;Max_cycle;Signal;HPM_P1;HPM_P2
2024/03/13 00:00:10;;;;;;;1.53;0.80;;;5.80;99.90;;;;;;5077115;28;20458;-80
2024/03/13 00:02:38;;;;;;;2.23;0.70;;;5.90;99.90;;;;;;5079574;28;20457;-80
2024/03/13 00:05:09;;;;;;;1.40;0.67;;;5.70;99.90;;;;;;5075348;28;20549;-81
2024/03/13 00:07:38;;;;;;;1.87;1.73;;;5.80;99.90;;;;;;5076233;28;20485;-81
2024/03/13 00:10:06;;;;;;;0.60;0.60;;;7.40;99.90;;;;;;5073486;28;20478;-81
2024/03/13 00:12:34;;;;;;;1.40;1.40;;;5.70;99.90;;;;;;5072700;28;20465;-80
2024/03/13 00:15:03;;;;;;;0.93;0.73;;;5.70;99.90;;;;;;5075947;28;20521;-81
2024/03/13 00:17:31;;;;;;;0.50;0.40;;;6.90;99.90;;;;;;5076644;28;20470;-81
2024/03/13 00:19:59;;;;;;;0.60;0.50;;;5.70;99.90;;;;;;5069435;28;20484;-80
2024/03/13 00:22:27;;;;;;;0.93;0.80;;;6.60;99.90;;;;;;5073812;28;20453;-80
2024/03/13 00:24:58;;;;;;;2.00;0.87;;;5.70;99.90;;;;;;5076833;28;20453;-81
2024/03/13 00:27:27;;;;;;;1.47;0.50;;;6.10;99.90;;;;;;5077930;28;20492;-81
2024/03/13 00:29:54;;;;;;;2.03;0.67;;;5.50;99.90;;;;;;5080746;28;20430;-81
2024/03/13 00:32:23;;;;;;;0.40;0.30;;;7.30;99.90;;;;;;5081913;28;20430;-84
2024/03/13 00:34:51;;;;;;;2.63;0.67;;;5.70;99.90;;;;;;5081304;28;20442;-83
2024/03/13 00:37:20;;;;;;;0.60;0.60;;;6.60;99.90;;;;;;5081859;28;20458;-84
2024/03/13 00:39:48;;;;;;;0.87;0.50;;;7.40;99.90;;;;;;5079993;28;20472;-80
2024/03/13 00:42:17;;;;;;;0.60;0.60;;;5.50;99.90;;;;;;5080839;28;20525;-81
2024/03/13 00:44:44;;;;;;;2.63;0.80;;;7.10;99.90;;;;;;5081186;28;20434;-82
2024/03/13 00:47:14;;;;;;;7.90;2.27;;;5.50;99.90;;;;;;5080030;28;20485;-81
2024/03/13 00:49:42;;;;;;;0.70;0.70;;;4.70;99.90;;;;;;5074103;28;20469;-81
2024/03/13 00:52:09;;;;;;;0.57;0.57;;;5.30;99.90;;;;;;5069410;28;20453;-81
2024/03/13 00:54:36;;;;;;;0.67;0.40;;;5.50;99.90;;;;;;5074341;28;20446;-81
2024/03/13 00:57:04;;;;;;;2.43;0.70;;;5.40;99.90;;;;;;5067694;28;20457;-81
2024/03/13 00:59:32;;;;;;;1.17;0.60;;;5.40;99.90;;;;;;5067318;28;20411;-80
2024/03/13 01:02:01;;;;;;;5.50;0.50;;;5.40;99.90;;;;;;5066256;28;20473;-80
2024/03/13 01:04:29;;;;;;;0.37;0.33;;;5.50;99.90;;;;;;5065762;28;20533;-80
2024/03/13 01:06:56;;;;;;;1.43;1.03;;;5.50;99.90;;;;;;5063052;28;20492;-80
2024/03/13 01:09:24;;;;;;;1.03;0.50;;;5.40;99.90;;;;;;5065545;28;20441;-80
2024/03/13 01:11:52;;;;;;;1.90;0.40;;;5.30;99.90;;;;;;5063545;28;20458;-80
2024/03/13 01:14:20;;;;;;;0.30;0.30;;;5.30;99.90;;;;;;5062764;28;20454;-80
2024/03/13 01:16:52;;;;;;;0.40;0.30;;;6.40;99.90;;;;;;5061178;28;20942;-80
2024/03/13 01:19:20;;;;;;;0.50;0.50;;;5.90;99.90;;;;;;5065474;28;20441;-80
2024/03/13 01:21:51;;;;;;;0.80;0.70;;;6.40;99.90;;;;;;5062726;28;20801;-80
2024/03/13 01:24:18;;;;;;;0.50;0.40;;;6.30;99.90;;;;;;5068959;28;20476;-80
2024/03/13 01:26:45;;;;;;;0.47;0.47;;;4.30;99.90;;;;;;5066647;28;20458;-81
2024/03/13 01:29:13;;;;;;;0.57;0.57;;;4.00;99.90;;;;;;5066258;28;20552;-80
2024/03/13 01:31:40;;;;;;;0.40;0.40;;;4.00;99.90;;;;;;5059107;28;20450;-80
2024/03/13 01:34:09;;;;;;;0.37;0.30;;;5.30;99.90;;;;;;5058690;28;20441;-79
2024/03/13 01:39:21;;;;;;;0.30;0.30;;;5.20;99.90;;;;;;5059529;28;20486;-80
2024/03/13 01:55:46;;;;;;;0.40;0.40;;;5.50;99.90;;;;;;5055308;28;20500;-80
2024/03/13 01:58:29;;;;;;;0.40;0.37;;;5.00;99.90;;;;;;5056096;28;20465;-80
2024/03/13 02:03:42;;;;;;;0.47;0.30;;;5.50;99.90;;;;;;5055614;28;20504;-80
2024/03/13 02:06:10;;;;;;;0.50;0.40;;;5.50;99.90;;;;;;5055738;28;20434;-80
2024/03/13 02:08:41;;;;;;;0.70;0.40;;;5.60;99.90;;;;;;5055006;28;20513;-80
2024/03/13 02:11:08;;;;;;;0.30;0.30;;;5.60;99.90;;;;;;5057540;28;20552;-81
2024/03/13 02:13:40;;;;;;;1.00;0.50;;;5.50;99.90;;;;;;5060263;28;20454;-81
2024/03/13 02:16:08;;;;;;;0.40;0.30;;;6.50;99.90;;;;;;5056692;28;20501;-80
2024/03/13 02:18:37;;;;;;;0.30;0.30;;;5.50;99.90;;;;;;5055360;28;20548;-80
2024/03/13 02:21:05;;;;;;;2.10;0.50;;;5.50;99.90;;;;;;5055314;28;20478;-80
2024/03/13 02:23:32;;;;;;;0.40;0.30;;;5.40;99.90;;;;;;5054294;28;20451;-80
2024/03/13 02:26:01;;;;;;;0.37;0.30;;;6.70;99.90;;;;;;5020692;28;20445;-80
2024/03/13 02:28:35;;;;;;;0.30;0.30;;;5.40;99.90;;;;;;5020772;28;20510;-80
2024/03/13 02:31:03;;;;;;;0.40;0.40;;;5.50;99.90;;;;;;5021188;28;20473;-80
2024/03/13 02:33:31;;;;;;;0.40;0.40;;;5.10;99.90;;;;;;5023674;28;20453;-80
2024/03/13 02:35:59;;;;;;;0.30;0.20;;;5.50;99.90;;;;;;5022417;28;20981;-80
2024/03/13 02:38:29;;;;;;;2.83;0.30;;;5.60;99.90;;;;;;5020823;28;20465;-80
2024/03/13 02:40:57;;;;;;;0.30;0.20;;;5.60;99.90;;;;;;5021850;28;20449;-80
2024/03/13 02:43:24;;;;;;;0.90;0.60;;;5.50;99.90;;;;;;5038056;28;20439;-79
2024/03/13 02:45:53;;;;;;;0.30;0.30;;;5.60;99.90;;;;;;5027592;28;20452;-79
2024/03/13 02:48:21;;;;;;;0.37;0.30;;;5.60;99.90;;;;;;5043380;28;20504;-80
2024/03/13 02:50:50;;;;;;;1.80;0.40;;;5.50;99.90;;;;;;5040619;28;20457;-79
2024/03/13 02:53:18;;;;;;;0.50;0.30;;;4.40;99.90;;;;;;5026682;28;20472;-80
2024/03/13 02:55:46;;;;;;;0.40;0.30;;;5.60;99.90;;;;;;5020496;28;20452;-80
2024/03/13 02:58:14;;;;;;;0.60;0.60;;;5.60;99.90;;;;;;5016469;28;20983;-80
2024/03/13 03:00:44;;;;;;;1.10;0.50;;;7.10;99.90;;;;;;5016958;28;20451;-80
2024/03/13 03:03:13;;;;;;;2.43;0.30;;;5.70;99.90;;;;;;5017839;28;20553;-80
2024/03/13 03:05:40;;;;;;;0.30;0.30;;;5.40;99.90;;;;;;5018698;28;20549;-81
2024/03/13 03:08:08;;;;;;;0.30;0.30;;;5.50;99.90;;;;;;5018738;28;20482;-81
2024/03/13 03:10:35;;;;;;;0.40;0.40;;;6.10;99.90;;;;;;5020926;28;20458;-81
2024/03/13 03:13:04;;;;;;;0.30;0.30;;;5.50;99.90;;;;;;5017825;28;20470;-80
2024/03/13 03:15:34;;;;;;;0.40;0.40;;;5.50;99.90;;;;;;5016624;28;20808;-79
2024/03/13 03:18:03;;;;;;;0.30;0.30;;;5.50;99.90;;;;;;5017076;28;20471;-80
2024/03/13 03:20:30;;;;;;;0.40;0.40;;;6.50;99.90;;;;;;5016675;28;20450;-80
2024/03/13 03:22:58;;;;;;;0.30;0.30;;;6.50;99.90;;;;;;5016845;28;20455;-80
2024/03/13 03:25:28;;;;;;;0.30;0.30;;;6.00;99.90;;;;;;5016510;28;20454;-80
2024/03/13 03:27:57;;;;;;;0.60;0.47;;;6.10;99.90;;;;;;5016473;28;20486;-80
2024/03/13 03:30:25;;;;;;;0.40;0.40;;;5.40;99.90;;;;;;5016379;28;20512;-80
2024/03/13 03:32:54;;;;;;;0.70;0.57;;;5.40;99.90;;;;;;5016460;28;20529;-80
2024/03/13 03:35:24;;;;;;;0.50;0.30;;;5.40;99.90;;;;;;5015370;28;20815;-80
2024/03/13 03:37:52;;;;;;;0.50;0.50;;;5.40;99.90;;;;;;5000785;28;20470;-80
2024/03/13 03:40:19;;;;;;;0.50;0.50;;;5.50;99.90;;;;;;5015966;28;20460;-80
2024/03/13 03:42:47;;;;;;;0.40;0.37;;;5.40;99.90;;;;;;5016227;28;20435;-80
2024/03/13 03:45:16;;;;;;;1.60;0.40;;;5.40;99.90;;;;;;5016007;28;20453;-80
2024/03/13 03:47:43;;;;;;;0.63;0.40;;;5.50;99.90;;;;;;5016247;28;20494;-79
2024/03/13 03:50:11;;;;;;;0.40;0.40;;;5.50;99.90;;;;;;5016439;28;21022;-80
2024/03/13 03:52:39;;;;;;;0.40;0.40;;;5.40;99.90;;;;;;5015713;28;20474;-80
2024/03/13 03:55:07;;;;;;;1.00;0.47;;;5.40;99.90;;;;;;5017066;28;20454;-81
2024/03/13 03:57:35;;;;;;;0.40;0.30;;;5.50;99.90;;;;;;5004299;28;20487;-80
2024/03/13 04:00:06;;;;;;;0.47;0.33;;;5.50;99.90;;;;;;5020139;28;20458;-80
2024/03/13 04:02:33;;;;;;;0.30;0.30;;;5.60;99.90;;;;;;5021138;28;20466;-80
2024/03/13 04:05:01;;;;;;;0.30;0.20;;;5.10;99.90;;;;;;5019441;28;20454;-79
2024/03/13 04:07:31;;;;;;;0.30;0.30;;;5.60;99.90;;;;;;5019540;28;20482;-80
2024/03/13 04:10:00;;;;;;;0.60;0.30;;;5.60;99.90;;;;;;5019351;28;20481;-79
2024/03/13 04:12:27;;;;;;;0.33;0.30;;;5.70;99.90;;;;;;5019705;28;20825;-80
2024/03/13 04:14:54;;;;;;;0.30;0.30;;;5.70;99.90;;;;;;5020306;28;20596;-80
2024/03/13 04:17:22;;;;;;;0.30;0.30;;;5.70;99.90;;;;;;5019315;28;20493;-80
2024/03/13 04:19:50;;;;;;;0.57;0.40;;;5.60;99.90;;;;;;5019924;28;20449;-79
2024/03/13 04:22:18;;;;;;;0.30;0.30;;;5.70;99.90;;;;;;5019472;28;20515;-79
2024/03/13 04:24:46;;;;;;;0.60;0.40;;;5.60;99.90;;;;;;5019435;28;20466;-79
2024/03/13 04:27:15;;;;;;;0.40;0.40;;;5.70;99.90;;;;;;5002654;28;21044;-80
2024/03/13 04:29:43;;;;;;;0.43;0.40;;;5.70;99.90;;;;;;5024900;28;20500;-79
2024/03/13 04:32:11;;;;;;;0.33;0.30;;;5.80;99.90;;;;;;5019896;28;20454;-80
2024/03/13 04:34:39;;;;;;;0.50;0.50;;;5.60;99.90;;;;;;5023824;28;20464;-79
2024/03/13 04:37:06;;;;;;;0.40;0.30;;;6.00;99.90;;;;;;5021399;28;20460;-80
2024/03/13 04:39:34;;;;;;;0.77;0.37;;;5.80;99.90;;;;;;5020116;28;20449;-80
2024/03/13 04:42:03;;;;;;;0.60;0.47;;;5.80;99.90;;;;;;5019028;28;20442;-80
2024/03/13 04:44:30;;;;;;;0.40;0.40;;;5.50;99.90;;;;;;5019777;28;20458;-80
2024/03/13 04:46:59;;;;;;;0.50;0.50;;;5.60;99.90;;;;;;5021007;28;20499;-80
2024/03/13 04:49:27;;;;;;;0.30;0.30;;;5.70;99.90;;;;;;5022633;28;20572;-79
2024/03/13 04:51:56;;;;;;;0.30;0.30;;;5.70;99.90;;;;;;5022672;28;20465;-79
2024/03/13 04:54:24;;;;;;;0.30;0.30;;;5.90;99.90;;;;;;5023233;28;20457;-79
2024/03/13 04:56:53;;;;;;;0.30;0.30;;;5.70;99.90;;;;;;5022430;28;21029;-80
2024/03/13 04:59:23;;;;;;;0.57;0.57;;;6.80;99.90;;;;;;5019059;28;20566;-79
2024/03/13 05:01:51;;;;;;;0.30;0.30;;;5.70;99.90;;;;;;5019308;28;20800;-79
2024/03/13 05:04:21;;;;;;;0.30;0.30;;;5.80;99.90;;;;;;4987005;28;20443;-79
2024/03/13 05:06:50;;;;;;;0.30;0.30;;;5.70;99.90;;;;;;5002736;28;20871;-79
2024/03/13 05:09:17;;;;;;;0.40;0.30;;;6.90;99.90;;;;;;5019082;28;20506;-79
2024/03/13 05:11:47;;;;;;;0.40;0.30;;;5.80;99.90;;;;;;5019572;28;20472;-79
2024/03/13 05:14:15;;;;;;;0.40;0.33;;;6.90;99.90;;;;;;5018892;28;20461;-79
2024/03/13 05:16:45;;;;;;;0.30;0.30;;;5.70;99.90;;;;;;5018737;28;20457;-76
2024/03/13 05:19:15;;;;;;;0.30;0.30;;;7.60;99.90;;;;;;5020292;28;20467;-80
2024/03/13 05:21:44;;;;;;;0.30;0.30;;;5.90;99.90;;;;;;5002398;28;20450;-80
2024/03/13 05:24:13;;;;;;;0.40;0.30;;;5.90;99.90;;;;;;5018735;28;21067;-79
2024/03/13 05:26:52;;;;;;;0.40;0.40;;;6.00;99.90;;;;;;5018763;28;20458;-80
2024/03/13 05:29:21;;;;;;;0.53;0.40;;;6.20;99.90;;;;;;5026527;28;20469;-79
2024/03/13 05:31:51;;;;;;;0.40;0.40;;;5.80;99.90;;;;;;5040162;28;20457;-80
2024/03/13 05:34:21;;;;;;;0.40;0.30;;;6.80;99.90;;;;;;5037162;28;20460;-79
2024/03/13 05:36:48;;;;;;;0.97;0.50;;;6.90;99.90;;;;;;5027166;28;20521;-79
2024/03/13 05:39:18;;;;;;;0.73;0.50;;;6.50;99.90;;;;;;5024461;28;20450;-79
2024/03/13 05:41:46;;;;;;;0.60;0.37;;;5.90;99.90;;;;;;5018298;28;20915;-79
2024/03/13 05:44:15;;;;;;;0.97;0.70;;;6.00;99.90;;;;;;5018871;28;20446;-79
2024/03/13 05:46:43;;;;;;;1.23;0.80;;;5.90;99.90;;;;;;5002443;28;20481;-79
2024/03/13 05:49:16;;;;;;;2.17;0.50;;;5.90;99.90;;;;;;5017962;28;20504;-79
2024/03/13 05:51:47;;;;;;;0.47;0.40;;;6.00;99.90;;;;;;5018548;28;20453;-79
2024/03/13 05:54:26;;;;;;;0.57;0.50;;;6.00;99.90;;;;;;5018176;28;20520;-79
2024/03/13 05:56:54;;;;;;;0.50;0.40;;;6.10;99.90;;;;;;5020113;28;20470;-80
2024/03/13 05:59:22;;;;;;;0.70;0.70;;;6.20;99.90;;;;;;5017166;28;20483;-80
2024/03/13 06:01:57;;;;;;;0.77;0.30;;;6.20;99.90;;;;;;5018042;28;21023;-80
2024/03/13 06:04:27;;;;;;;0.70;0.50;;;6.20;99.90;;;;;;5019404;28;20525;-79
2024/03/13 06:07:15;;;;;;;0.40;0.40;;;6.20;99.90;;;;;;5003528;28;20426;-80
2024/03/13 06:09:45;;;;;;;0.40;0.30;;;6.20;99.90;;;;;;5019940;28;20849;-79
2024/03/13 06:12:15;;;;;;;0.40;0.40;;;6.20;99.90;;;;;;5017831;28;20470;-80
2024/03/13 06:14:49;;;;;;;0.40;0.40;;;6.20;99.90;;;;;;5017267;28;20447;-80
2024/03/13 06:17:16;;;;;;;0.47;0.37;;;6.30;99.90;;;;;;5033252;23;20598;-80
2024/03/13 06:19:43;;;;;;;0.60;0.60;;;6.30;99.90;;;;;;4998388;28;20424;-80
2024/03/13 06:22:10;;;;;;;0.40;0.40;;;6.40;99.90;;;;;;4998167;28;20498;-80
2024/03/13 06:24:37;;;;;;;0.50;0.40;;;6.40;99.90;;;;;;5001825;28;20451;-80
2024/03/13 06:29:57;;;;;;;0.70;0.43;;;6.50;99.90;;;;;;5033728;28;20478;-80
2024/03/13 06:32:24;;;;;;;2.43;0.57;;;6.50;99.90;;;;;;5006422;28;20506;-80
2024/03/13 06:34:51;;;;;;;0.53;0.50;;;6.50;99.90;;;;;;5001500;28;20475;-80
2024/03/13 06:37:18;;;;;;;0.60;0.37;;;7.20;99.90;;;;;;5004319;28;20473;-80
2024/03/13 06:39:45;;;;;;;0.50;0.40;;;6.60;99.90;;;;;;5020589;28;20788;-80
2024/03/13 06:42:12;;;;;;;0.57;0.57;;;6.70;99.90;;;;;;5020565;28;20445;-80
2024/03/13 06:44:39;;;;;;;0.43;0.40;;;6.70;99.90;;;;;;5020669;28;20931;-80
2024/03/13 06:49:35;;;;;;;0.40;0.40;;;6.70;99.90;;;;;;5033172;28;20486;-79
2024/03/13 06:52:02;;;;;;;0.40;0.40;;;6.80;99.90;;;;;;5001463;28;20447;-80
2024/03/13 06:54:29;;;;;;;0.40;0.40;;;6.80;99.90;;;;;;5001812;28;20446;-80
2024/03/13 06:59:35;;;;;;;0.50;0.50;;;6.80;99.90;;;;;;5834415;23;20486;-80
2024/03/13 07:02:02;;;;;;;0.50;0.47;;;6.80;99.90;;;;;;5000418;28;20431;-79
2024/03/13 07:04:29;;;;;;;0.90;0.50;;;6.80;99.90;;;;;;4997826;28;20941;-79
2024/03/13 07:06:58;;;;;;;0.50;0.50;;;6.90;99.90;;;;;;5000695;28;20440;-79
2024/03/13 07:09:26;;;;;;;0.80;0.50;;;7.00;99.90;;;;;;5016192;28;21073;-79
2024/03/13 07:11:53;;;;;;;0.40;0.40;;;7.10;99.90;;;;;;5020254;28;20453;-80
2024/03/13 07:14:19;;;;;;;0.70;0.63;;;7.10;99.90;;;;;;5016655;28;20442;-80
2024/03/13 07:16:46;;;;;;;0.47;0.47;;;7.20;99.90;;;;;;5017569;28;20466;-80
2024/03/13 07:19:13;;;;;;;0.40;0.40;;;7.10;99.90;;;;;;5016571;28;20466;-80
2024/03/13 07:21:40;;;;;;;0.50;0.40;;;7.10;99.90;;;;;;5016667;28;20441;-80
2024/03/13 07:24:07;;;;;;;0.60;0.60;;;7.10;99.90;;;;;;5018028;28;20482;-79
2024/03/13 07:26:34;;;;;;;0.57;0.57;;;7.20;99.90;;;;;;5016676;28;20446;-79
2024/03/13 07:29:01;;;;;;;0.40;0.40;;;7.30;99.90;;;;;;5019209;28;20462;-80
2024/03/13 07:31:46;;;;;;;1.53;0.70;;;7.30;99.90;;;;;;5016897;28;20443;-80
2024/03/13 07:34:13;;;;;;;0.60;0.60;;;8.40;99.90;;;;;;5016591;28;20427;-79
2024/03/13 07:36:40;;;;;;;0.70;0.53;;;7.50;99.90;;;;;;5016643;28;20456;-80
2024/03/13 07:39:10;;;;;;;0.40;0.40;;;7.50;99.90;;;;;;5016474;28;20462;-80
2024/03/13 07:41:37;;;;;;;0.50;0.40;;;7.50;99.90;;;;;;5017413;28;20446;-80
2024/03/13 07:44:07;;;;;;;0.30;0.30;;;7.50;99.90;;;;;;5020562;28;20442;-79
2024/03/13 07:46:34;;;;;;;0.60;0.53;;;7.50;99.90;;;;;;5017234;28;20474;-80
2024/03/13 07:49:00;;;;;;;0.40;0.40;;;7.60;99.90;;;;;;5019582;28;20465;-80
2024/03/13 07:51:28;;;;;;;0.90;0.53;;;7.60;99.90;;;;;;5016934;28;20450;-80
2024/03/13 07:53:55;;;;;;;0.40;0.30;;;7.70;99.90;;;;;;5019218;28;20430;-80
2024/03/13 07:56:22;;;;;;;0.50;0.40;;;7.70;99.90;;;;;;5017367;28;20439;-80
2024/03/13 07:58:50;;;;;;;0.50;0.50;;;7.70;99.90;;;;;;5018533;28;20470;-81
2024/03/13 08:01:17;;;;;;;0.30;0.30;;;7.70;99.90;;;;;;5016838;28;20498;-80
2024/03/13 08:03:44;;;;;;;0.33;0.30;;;7.70;99.90;;;;;;5018281;28;20451;-80
2024/03/13 08:06:11;;;;;;;0.40;0.30;;;7.70;99.90;;;;;;5021171;28;20450;-80
2024/03/13 08:08:38;;;;;;;0.30;0.30;;;7.70;99.90;;;;;;5021761;28;20470;-80
2024/03/13 08:11:05;;;;;;;0.40;0.40;;;7.80;99.90;;;;;;5021338;28;20476;-80
2024/03/13 08:13:32;;;;;;;0.30;0.30;;;7.80;99.90;;;;;;5022957;28;20453;-81
2024/03/13 08:16:00;;;;;;;0.30;0.20;;;7.80;99.90;;;;;;5027680;28;20448;-80
2024/03/13 08:18:27;;;;;;;0.40;0.40;;;7.80;99.90;;;;;;5024558;28;20477;-80
2024/03/13 08:20:54;;;;;;;0.30;0.20;;;7.80;99.90;;;;;;5039500;28;20511;-80
2024/03/13 08:23:21;;;;;;;0.40;0.30;;;7.90;99.90;;;;;;5045915;28;20434;-82
2024/03/13 08:25:48;;;;;;;0.40;0.30;;;8.00;99.90;;;;;;5048832;28;20442;-79
2024/03/13 08:28:15;;;;;;;0.30;0.30;;;8.00;99.90;;;;;;5048312;28;20442;-81
2024/03/13 08:30:43;;;;;;;0.43;0.37;;;8.00;99.90;;;;;;5026103;28;20853;-81
2024/03/13 08:33:09;;;;;;;0.30;0.30;;;7.90;99.90;;;;;;5025169;28;21041;-81
2024/03/13 08:35:41;;;;;;;0.30;0.30;;;8.00;99.90;;;;;;5025516;28;20473;-80
2024/03/13 08:38:08;;;;;;;0.33;0.30;;;7.90;99.90;;;;;;5026100;28;20516;-80
2024/03/13 08:40:35;;;;;;;0.30;0.20;;;7.90;99.90;;;;;;5024315;28;20495;-80
2024/03/13 08:43:02;;;;;;;0.40;0.40;;;7.90;99.90;;;;;;5023759;28;20445;-80
2024/03/13 08:45:29;;;;;;;0.40;0.37;;;8.00;99.90;;;;;;5024320;28;20450;-80
2024/03/13 08:47:56;;;;;;;1.13;0.30;;;8.20;99.90;;;;;;5024528;28;20457;-79
2024/03/13 08:50:23;;;;;;;0.40;0.40;;;8.20;99.90;;;;;;5024439;28;20854;-79
2024/03/13 08:52:50;;;;;;;0.40;0.30;;;8.10;99.90;;;;;;5024001;28;20430;-80
2024/03/13 08:55:18;;;;;;;0.43;0.43;;;8.20;99.90;;;;;;5024390;28;20449;-80
2024/03/13 08:57:45;;;;;;;0.40;0.40;;;8.20;99.90;;;;;;5024764;28;20463;-80
2024/03/13 09:00:13;;;;;;;0.67;0.37;;;8.20;99.90;;;;;;5024233;28;20880;-81
2024/03/13 09:02:40;;;;;;;0.40;0.40;;;8.20;99.90;;;;;;5024985;28;20445;-81
2024/03/13 09:05:08;;;;;;;0.40;0.40;;;8.30;99.90;;;;;;5023794;28;20453;-80
2024/03/13 09:07:35;;;;;;;0.30;0.30;;;8.40;99.90;;;;;;5024227;28;20467;-82
2024/03/13 09:10:02;;;;;;;0.30;0.30;;;8.30;99.90;;;;;;5023715;28;20577;-82
2024/03/13 09:12:29;;;;;;;2.13;0.60;;;8.50;99.90;;;;;;5024281;28;20452;-81
2024/03/13 09:14:56;;;;;;;0.47;0.47;;;8.50;99.90;;;;;;5024436;28;20975;-80
2024/03/13 09:17:24;;;;;;;0.30;0.30;;;8.60;99.90;;;;;;5024652;28;20466;-80
2024/03/13 09:19:51;;;;;;;0.43;0.40;;;8.70;99.90;;;;;;5024605;28;20452;-81
2024/03/13 09:22:18;;;;;;;0.30;0.30;;;8.70;99.90;;;;;;5024531;28;20449;-81
2024/03/13 09:24:45;;;;;;;0.40;0.40;;;8.80;99.90;;;;;;5023679;28;20947;-81
2024/03/13 09:27:12;;;;;;;0.57;0.40;;;8.90;99.90;;;;;;5023274;28;20995;-81
2024/03/13 09:29:39;;;;;;;0.40;0.40;;;9.10;99.90;;;;;;5022758;28;20445;-80
2024/03/13 09:32:06;;;;;;;0.80;0.60;;;9.20;99.90;;;;;;5023558;28;20441;-81
2024/03/13 09:34:33;;;;;;;0.50;0.30;;;9.40;99.90;;;;;;5022234;28;20450;-81
2024/03/13 09:37:03;;;;;;;0.40;0.40;;;9.40;99.90;;;;;;5022957;28;20448;-81
2024/03/13 09:39:30;;;;;;;0.43;0.40;;;9.40;99.90;;;;;;5024473;28;20462;-80
2024/03/13 09:41:58;;;;;;;0.40;0.40;;;9.40;99.90;;;;;;5022738;28;20442;-80
2024/03/13 09:44:24;;;;;;;0.40;0.40;;;9.50;99.90;;;;;;5023179;28;20454;-80
2024/03/13 09:46:51;;;;;;;3.53;0.50;;;9.60;99.90;;;;;;5023230;28;20430;-81
2024/03/13 09:49:19;;;;;;;0.43;0.40;;;9.70;99.90;;;;;;5022690;28;20438;-80
2024/03/13 09:51:45;;;;;;;0.87;0.40;;;9.80;99.90;;;;;;5022828;28;21076;-81
2024/03/13 09:54:12;;;;;;;0.73;0.70;;;10.00;99.90;;;;;;5022748;28;20803;-81
2024/03/13 09:56:40;;;;;;;1.53;0.50;;;11.00;99.90;;;;;;5022952;28;20446;-80
2024/03/13 09:59:07;;;;;;;0.53;0.50;;;10.50;99.90;;;;;;5022922;28;20491;-81
2024/03/13 10:01:35;;;;;;;0.80;0.80;;;10.30;99.90;;;;;;5022803;28;20923;-81
2024/03/13 10:04:10;;;;;;;1.70;0.70;;;10.50;99.90;;;;;;5023035;28;20441;-81
2024/03/13 10:06:37;;;;;;;0.50;0.50;;;10.50;99.90;;;;;;5025108;28;20430;-81
2024/03/13 10:09:07;;;;;;;0.50;0.50;;;10.50;99.90;;;;;;5022277;28;20450;-81
2024/03/13 10:11:34;;;;;;;1.47;0.60;;;10.30;99.90;;;;;;5023663;28;20477;-81
2024/03/13 10:14:01;;;;;;;0.60;0.50;;;10.40;99.90;;;;;;5022217;28;20450;-81
2024/03/13 10:16:28;;;;;;;0.60;0.50;;;10.40;99.90;;;;;;5022454;28;20452;-82
2024/03/13 10:18:55;;;;;;;0.50;0.50;;;10.70;99.90;;;;;;5022162;28;20448;-81
2024/03/13 10:21:23;;;;;;;0.60;0.50;;;10.60;99.90;;;;;;5021969;28;20445;-82
2024/03/13 10:23:50;;;;;;;0.60;0.60;;;10.60;99.90;;;;;;5022215;28;20430;-82
2024/03/13 10:26:20;;;;;;;2.00;0.50;;;10.80;99.90;;;;;;5022261;28;20571;-81
2024/03/13 10:28:47;;;;;;;0.40;0.40;;;10.90;99.90;;;;;;5023875;28;20458;-81
2024/03/13 10:31:27;;;;;;;0.50;0.50;;;11.10;99.90;;;;;;5025886;28;20496;-81
2024/03/13 10:33:56;;;;;;;0.60;0.60;;;11.20;99.90;;;;;;5029396;28;20452;-81
2024/03/13 10:36:23;;;;;;;0.50;0.40;;;11.20;99.90;;;;;;5026007;28;20795;-81
2024/03/13 10:38:50;;;;;;;0.50;0.40;;;11.20;99.90;;;;;;5022684;28;20461;-81
2024/03/13 10:41:17;;;;;;;0.40;0.40;;;11.10;99.90;;;;;;5022414;28;20446;-81
2024/03/13 10:43:46;;;;;;;0.53;0.53;;;11.30;99.90;;;;;;5021900;28;20445;-85
2024/03/13 10:46:13;;;;;;;0.50;0.40;;;11.60;99.90;;;;;;5023575;28;20449;-80
2024/03/13 10:48:40;;;;;;;0.50;0.50;;;11.70;99.90;;;;;;5024816;28;20469;-81
2024/03/13 10:51:10;;;;;;;1.70;0.50;;;11.80;99.90;;;;;;5024463;28;20572;-80
2024/03/13 10:53:37;;;;;;;0.43;0.40;;;11.80;99.90;;;;;;5023864;28;20430;-80
2024/03/13 10:56:04;;;;;;;0.80;0.50;;;11.90;99.90;;;;;;5021641;28;20441;-81
2024/03/13 10:58:33;;;;;;;0.40;0.40;;;11.80;99.90;;;;;;5021732;28;20994;-81
2024/03/13 11:01:00;;;;;;;0.50;0.50;;;11.70;99.90;;;;;;5021588;28;20486;-81
2024/03/13 11:03:27;;;;;;;0.40;0.40;;;11.70;99.90;;;;;;5018887;28;20450;-82
2024/03/13 11:05:54;;;;;;;0.90;0.47;;;11.60;99.90;;;;;;5020309;28;20438;-81
2024/03/13 11:08:22;;;;;;;2.33;0.70;;;11.60;99.90;;;;;;5019771;28;20473;-81
2024/03/13 11:10:49;;;;;;;0.50;0.50;;;11.60;99.90;;;;;;5020169;28;20474;-81
2024/03/13 11:13:16;;;;;;;0.50;0.40;;;11.40;99.90;;;;;;5026608;28;20415;-82
2024/03/13 11:15:43;;;;;;;0.57;0.50;;;11.40;99.90;;;;;;5037977;28;20478;-82
2024/03/13 11:18:11;;;;;;;1.63;0.60;;;11.30;99.90;;;;;;5038370;28;20462;-83
2024/03/13 11:20:38;;;;;;;0.50;0.50;;;11.20;99.90;;;;;;5037970;28;20431;-82
2024/03/13 11:23:05;;;;;;;0.97;0.50;;;11.20;99.90;;;;;;5034310;28;20537;-82
2024/03/13 11:25:32;;;;;;;0.83;0.40;;;11.20;99.90;;;;;;5019369;28;20439;-81
2024/03/13 11:27:59;;;;;;;0.40;0.40;;;11.10;99.90;;;;;;5022258;28;20458;-81
2024/03/13 11:30:27;;;;;;;0.43;0.43;;;11.10;99.90;;;;;;5019069;28;20485;-81
2024/03/13 11:32:54;;;;;;;0.40;0.40;;;11.10;99.90;;;;;;5022977;28;20555;-81
2024/03/13 11:35:21;;;;;;;0.50;0.40;;;11.20;99.90;;;;;;5024897;28;20967;-80
2024/03/13 11:37:48;;;;;;;0.70;0.50;;;11.30;99.90;;;;;;5020528;28;20463;-80
2024/03/13 11:40:15;;;;;;;3.70;0.50;;;11.50;99.90;;;;;;5024629;28;20457;-81
2024/03/13 11:42:43;;;;;;;0.70;0.50;;;11.70;99.90;;;;;;5019074;28;20435;-81
2024/03/13 11:45:16;;;;;;;0.50;0.50;;;11.90;99.90;;;;;;5018817;28;20782;-81
2024/03/13 11:47:45;;;;;;;0.60;0.60;;;12.00;99.90;;;;;;5023084;28;20451;-80
2024/03/13 11:50:12;;;;;;;0.30;0.30;;;12.20;99.90;;;;;;5019866;28;20435;-80
2024/03/13 11:52:48;;;;;;;0.33;0.30;;;12.30;99.90;;;;;;5018555;28;20467;-80
2024/03/13 11:55:25;;;;;;;1.73;0.50;;;12.50;99.90;;;;;;5021612;28;20786;-80
2024/03/13 11:58:01;;;;;;;0.40;0.30;;;12.70;99.90;;;;;;5023954;28;20458;-80
2024/03/13 12:00:29;;;;;;;0.40;0.30;;;12.80;99.90;;;;;;5024539;28;20476;-79
2024/03/13 12:02:56;;;;;;;0.30;0.30;;;12.90;99.90;;;;;;5024039;28;20810;-80
2024/03/13 12:05:33;;;;;;;0.40;0.40;;;12.90;99.90;;;;;;5016838;28;20815;-81
2024/03/13 12:08:01;;;;;;;0.30;0.30;;;12.80;99.90;;;;;;5025693;28;20481;-80
2024/03/13 12:10:29;;;;;;;0.37;0.30;;;12.80;99.90;;;;;;5018424;28;20447;-80
2024/03/13 12:12:55;;;;;;;0.30;0.30;;;12.80;99.90;;;;;;5026163;28;20450;-79
2024/03/13 12:15:23;;;;;;;1.77;0.30;;;12.90;99.90;;;;;;5017643;28;20458;-79
2024/03/13 12:17:50;;;;;;;0.30;0.20;;;12.90;99.90;;;;;;5024805;28;20520;-80
2024/03/13 12:20:19;;;;;;;0.30;0.20;;;13.00;99.90;;;;;;5016598;28;20431;-79
2024/03/13 12:22:46;;;;;;;0.30;0.20;;;13.00;99.90;;;;;;5024550;28;20439;-79
2024/03/13 12:25:13;;;;;;;0.30;0.20;;;13.20;99.90;;;;;;5020133;28;20442;-79
2024/03/13 12:27:49;;;;;;;0.30;0.30;;;13.30;99.90;;;;;;5029471;28;20454;-79
2024/03/13 12:30:18;;;;;;;0.30;0.30;;;13.30;99.90;;;;;;5026946;28;20789;-79
2024/03/13 12:32:46;;;;;;;0.30;0.30;;;13.40;99.90;;;;;;5023906;28;20479;-80
2024/03/13 12:35:13;;;;;;;0.30;0.23;;;13.40;99.90;;;;;;5016579;28;20438;-80
2024/03/13 12:37:40;;;;;;;0.30;0.30;;;13.30;99.90;;;;;;5023476;28;20505;-80
2024/03/13 12:40:08;;;;;;;0.30;0.30;;;13.10;99.90;;;;;;5029771;28;20431;-81
2024/03/13 12:42:39;;;;;;;0.30;0.30;;;13.00;99.90;;;;;;5029891;28;20437;-81
2024/03/13 12:45:07;;;;;;;0.30;0.20;;;12.90;99.90;;;;;;5021184;28;20989;-79
2024/03/13 12:47:35;;;;;;;0.40;0.30;;;12.70;99.90;;;;;;5024525;28;20505;-80
2024/03/13 12:50:06;;;;;;;0.30;0.20;;;12.70;99.90;;;;;;5025628;28;20507;-81
2024/03/13 12:52:33;;;;;;;0.50;0.40;;;12.60;99.90;;;;;;5025298;28;20481;-81
2024/03/13 12:55:00;;;;;;;0.40;0.30;;;12.70;99.90;;;;;;5026381;28;20446;-81
2024/03/13 12:57:29;;;;;;;0.40;0.30;;;12.60;99.90;;;;;;5019103;28;20468;-81
2024/03/13 12:59:58;;;;;;;0.40;0.30;;;12.50;99.90;;;;;;5025669;28;20532;-81
2024/03/13 13:02:25;;;;;;;0.50;0.37;;;12.30;99.90;;;;;;5018943;28;20457;-81
2024/03/13 13:04:52;;;;;;;0.40;0.30;;;12.10;99.90;;;;;;5023102;28;20446;-81
2024/03/13 13:07:19;;;;;;;0.30;0.20;;;12.00;99.90;;;;;;5016229;28;20509;-80
2024/03/13 13:09:47;;;;;;;1.70;0.70;;;11.80;99.90;;;;;;5025459;28;20442;-80
2024/03/13 13:12:16;;;;;;;0.30;0.30;;;11.80;99.90;;;;;;5020924;28;21007;-82
2024/03/13 13:14:43;;;;;;;0.30;0.30;;;11.70;99.90;;;;;;5027279;28;20450;-81
2024/03/13 13:17:10;;;;;;;0.30;0.30;;;11.60;99.90;;;;;;5018806;28;20453;-80
2024/03/13 13:19:37;;;;;;;0.30;0.30;;;11.70;99.90;;;;;;5024192;28;20435;-81
2024/03/13 13:22:04;;;;;;;0.67;0.33;;;11.90;99.90;;;;;;5025513;28;20553;-80
2024/03/13 13:24:32;;;;;;;0.30;0.30;;;12.00;99.90;;;;;;5018672;28;20565;-80
2024/03/13 13:26:59;;;;;;;0.30;0.30;;;12.00;99.90;;;;;;5023226;28;20925;-80